sensor_id;sensor_type;location;lat;lon;timestamp;P1;durP1;ratioP1;P2;durP2;ratioP2
46391;SDS011;32098;49.448;7.904;2023-06-14T00:01:30;6.25;;;5.65;;
46391;SDS011;32098;49.448;7.904;2023-06-14T00:04:01;6.50;;;5.88;;
46391;SDS011;32098;49.448;7.904;2023-06-14T00:06:30;6.75;;;5.45;;
46391;SDS011;32098;49.448;7.904;2023-06-14T00:08:57;8.35;;;5.80;;
46391;SDS011;32098;49.448;7.904;2023-06-14T00:11:24;5.97;;;5.38;;
46391;SDS011;32098;49.448;7.904;2023-06-14T00:13:52;6.60;;;5.82;;
46391;SDS011;32098;49.448;7.904;2023-06-14T00:16:19;6.65;;;5.93;;
46391;SDS011;32098;49.448;7.904;2023-06-14T00:18:45;7.10;;;5.93;;
46391;SDS011;32098;49.448;7.904;2023-06-14T00:21:12;7.53;;;6.03;;
46391;SDS011;32098;49.448;7.904;2023-06-14T00:23:38;6.60;;;5.90;;
46391;SDS011;32098;49.448;7.904;2023-06-14T00:26:05;6.50;;;5.80;;
46391;SDS011;32098;49.448;7.904;2023-06-14T00:28:32;6.67;;;5.87;;
46391;SDS011;32098;49.448;7.904;2023-06-14T00:30:58;6.00;;;5.37;;
46391;SDS011;32098;49.448;7.904;2023-06-14T00:33:27;7.23;;;6.43;;
46391;SDS011;32098;49.448;7.904;2023-06-14T00:35:54;6.77;;;5.97;;
46391;SDS011;32098;49.448;7.904;2023-06-14T00:38:20;7.37;;;6.23;;
46391;SDS011;32098;49.448;7.904;2023-06-14T00:40:47;8.27;;;6.50;;
46391;SDS011;32098;49.448;7.904;2023-06-14T00:43:13;8.90;;;6.57;;
46391;SDS011;32098;49.448;7.904;2023-06-14T00:45:42;7.53;;;6.40;;
46391;SDS011;32098;49.448;7.904;2023-06-14T00:48:08;6.63;;;6.03;;
46391;SDS011;32098;49.448;7.904;2023-06-14T00:50:36;7.37;;;6.57;;
46391;SDS011;32098;49.448;7.904;2023-06-14T00:53:04;8.60;;;6.70;;
46391;SDS011;32098;49.448;7.904;2023-06-14T00:55:31;8.07;;;6.60;;
46391;SDS011;32098;49.448;7.904;2023-06-14T00:57:59;6.33;;;5.73;;
46391;SDS011;32098;49.448;7.904;2023-06-14T01:00:25;7.17;;;5.90;;
46391;SDS011;32098;49.448;7.904;2023-06-14T01:02:55;8.20;;;6.13;;
46391;SDS011;32098;49.448;7.904;2023-06-14T01:05:23;7.07;;;6.37;;
46391;SDS011;32098;49.448;7.904;2023-06-14T01:10:47;6.93;;;6.23;;
46391;SDS011;32098;49.448;7.904;2023-06-14T01:13:35;7.17;;;6.30;;
46391;SDS011;32098;49.448;7.904;2023-06-14T01:16:04;8.47;;;6.77;;
46391;SDS011;32098;49.448;7.904;2023-06-14T01:18:31;7.90;;;6.63;;
46391;SDS011;32098;49.448;7.904;2023-06-14T01:21:00;6.23;;;5.63;;
46391;SDS011;32098;49.448;7.904;2023-06-14T01:23:32;8.97;;;6.50;;
46391;SDS011;32098;49.448;7.904;2023-06-14T01:26:00;6.77;;;6.07;;
46391;SDS011;32098;49.448;7.904;2023-06-14T01:28:30;7.30;;;6.60;;
46391;SDS011;32098;49.448;7.904;2023-06-14T01:31:02;7.40;;;6.67;;
46391;SDS011;32098;49.448;7.904;2023-06-14T01:33:32;7.20;;;6.50;;
46391;SDS011;32098;49.448;7.904;2023-06-14T01:36:01;8.73;;;6.60;;
46391;SDS011;32098;49.448;7.904;2023-06-14T01:38:29;7.93;;;6.57;;
46391;SDS011;32098;49.448;7.904;2023-06-14T01:40:57;8.37;;;6.90;;
46391;SDS011;32098;49.448;7.904;2023-06-14T01:43:26;8.47;;;6.60;;
46391;SDS011;32098;49.448;7.904;2023-06-14T01:45:54;8.03;;;6.50;;
46391;SDS011;32098;49.448;7.904;2023-06-14T01:48:22;7.43;;;6.57;;
46391;SDS011;32098;49.448;7.904;2023-06-14T01:50:49;6.70;;;6.10;;
46391;SDS011;32098;49.448;7.904;2023-06-14T01:53:16;8.83;;;7.00;;
46391;SDS011;32098;49.448;7.904;2023-06-14T01:55:42;8.27;;;6.40;;
46391;SDS011;32098;49.448;7.904;2023-06-14T01:58:10;7.47;;;6.77;;
46391;SDS011;32098;49.448;7.904;2023-06-14T02:00:37;7.80;;;7.00;;
46391;SDS011;32098;49.448;7.904;2023-06-14T02:03:03;8.53;;;6.70;;
46391;SDS011;32098;49.448;7.904;2023-06-14T02:05:30;7.47;;;6.67;;
46391;SDS011;32098;49.448;7.904;2023-06-14T02:07:57;7.10;;;6.40;;
46391;SDS011;32098;49.448;7.904;2023-06-14T02:10:24;8.10;;;6.97;;
46391;SDS011;32098;49.448;7.904;2023-06-14T02:12:50;8.43;;;6.50;;
46391;SDS011;32098;49.448;7.904;2023-06-14T02:15:17;9.50;;;6.43;;
46391;SDS011;32098;49.448;7.904;2023-06-14T02:17:44;7.67;;;6.70;;
46391;SDS011;32098;49.448;7.904;2023-06-14T02:20:11;8.17;;;6.87;;
46391;SDS011;32098;49.448;7.904;2023-06-14T02:22:38;7.90;;;6.77;;
46391;SDS011;32098;49.448;7.904;2023-06-14T02:25:06;8.87;;;7.07;;
46391;SDS011;32098;49.448;7.904;2023-06-14T02:27:34;8.03;;;7.23;;
46391;SDS011;32098;49.448;7.904;2023-06-14T02:30:02;7.43;;;6.30;;
46391;SDS011;32098;49.448;7.904;2023-06-14T02:32:31;8.70;;;7.33;;
46391;SDS011;32098;49.448;7.904;2023-06-14T02:35:00;7.57;;;6.47;;
46391;SDS011;32098;49.448;7.904;2023-06-14T02:37:27;7.87;;;7.00;;
46391;SDS011;32098;49.448;7.904;2023-06-14T02:39:55;8.17;;;6.73;;
46391;SDS011;32098;49.448;7.904;2023-06-14T02:42:22;7.93;;;7.10;;
46391;SDS011;32098;49.448;7.904;2023-06-14T02:44:49;8.07;;;6.73;;
46391;SDS011;32098;49.448;7.904;2023-06-14T02:47:18;7.40;;;6.60;;
46391;SDS011;32098;49.448;7.904;2023-06-14T02:49:44;7.00;;;6.30;;
46391;SDS011;32098;49.448;7.904;2023-06-14T02:52:14;7.90;;;6.77;;
46391;SDS011;32098;49.448;7.904;2023-06-14T02:54:41;7.90;;;7.10;;
46391;SDS011;32098;49.448;7.904;2023-06-14T02:57:09;7.57;;;6.77;;
46391;SDS011;32098;49.448;7.904;2023-06-14T02:59:37;7.60;;;6.80;;
46391;SDS011;32098;49.448;7.904;2023-06-14T03:02:04;9.23;;;8.03;;
46391;SDS011;32098;49.448;7.904;2023-06-14T03:04:33;9.07;;;7.23;;
46391;SDS011;32098;49.448;7.904;2023-06-14T03:07:07;7.60;;;6.80;;
46391;SDS011;32098;49.448;7.904;2023-06-14T03:09:39;7.63;;;6.50;;
46391;SDS011;32098;49.448;7.904;2023-06-14T03:12:09;7.80;;;7.00;;
46391;SDS011;32098;49.448;7.904;2023-06-14T03:14:36;8.00;;;6.70;;
46391;SDS011;32098;49.448;7.904;2023-06-14T03:17:03;8.00;;;6.97;;
46391;SDS011;32098;49.448;7.904;2023-06-14T03:19:33;8.23;;;7.33;;
46391;SDS011;32098;49.448;7.904;2023-06-14T03:21:59;7.60;;;6.80;;
46391;SDS011;32098;49.448;7.904;2023-06-14T03:24:28;7.53;;;6.83;;
46391;SDS011;32098;49.448;7.904;2023-06-14T03:26:57;8.63;;;7.33;;
46391;SDS011;32098;49.448;7.904;2023-06-14T03:29:26;7.93;;;7.13;;
46391;SDS011;32098;49.448;7.904;2023-06-14T03:31:56;8.50;;;7.33;;
46391;SDS011;32098;49.448;7.904;2023-06-14T03:34:37;7.63;;;6.83;;
46391;SDS011;32098;49.448;7.904;2023-06-14T03:37:13;27.17;;;9.20;;
46391;SDS011;32098;49.448;7.904;2023-06-14T03:39:39;47.07;;;10.00;;
46391;SDS011;32098;49.448;7.904;2023-06-14T03:42:15;32.43;;;8.90;;
46391;SDS011;32098;49.448;7.904;2023-06-14T03:44:43;21.17;;;8.90;;
46391;SDS011;32098;49.448;7.904;2023-06-14T03:47:10;9.37;;;7.10;;
46391;SDS011;32098;49.448;7.904;2023-06-14T03:49:36;15.00;;;7.80;;
46391;SDS011;32098;49.448;7.904;2023-06-14T03:52:03;8.17;;;7.10;;
46391;SDS011;32098;49.448;7.904;2023-06-14T03:54:31;12.20;;;7.50;;
46391;SDS011;32098;49.448;7.904;2023-06-14T03:57:01;13.73;;;7.37;;
46391;SDS011;32098;49.448;7.904;2023-06-14T03:59:28;8.40;;;7.53;;
46391;SDS011;32098;49.448;7.904;2023-06-14T04:01:55;7.97;;;7.17;;
46391;SDS011;32098;49.448;7.904;2023-06-14T04:04:21;8.27;;;7.40;;
46391;SDS011;32098;49.448;7.904;2023-06-14T04:06:56;9.07;;;7.83;;
46391;SDS011;32098;49.448;7.904;2023-06-14T04:09:25;8.97;;;7.00;;
46391;SDS011;32098;49.448;7.904;2023-06-14T04:11:52;11.07;;;7.90;;
46391;SDS011;32098;49.448;7.904;2023-06-14T04:14:19;9.33;;;7.23;;
46391;SDS011;32098;49.448;7.904;2023-06-14T04:16:46;10.17;;;7.27;;
46391;SDS011;32098;49.448;7.904;2023-06-14T04:19:16;8.10;;;6.80;;
46391;SDS011;32098;49.448;7.904;2023-06-14T04:21:43;10.77;;;6.83;;
46391;SDS011;32098;49.448;7.904;2023-06-14T04:24:10;8.20;;;6.77;;
46391;SDS011;32098;49.448;7.904;2023-06-14T04:26:42;8.37;;;7.30;;
46391;SDS011;32098;49.448;7.904;2023-06-14T04:29:12;9.40;;;7.10;;
46391;SDS011;32098;49.448;7.904;2023-06-14T04:31:47;9.03;;;7.27;;
46391;SDS011;32098;49.448;7.904;2023-06-14T04:34:14;8.43;;;7.57;;
46391;SDS011;32098;49.448;7.904;2023-06-14T04:36:47;10.03;;;7.20;;
46391;SDS011;32098;49.448;7.904;2023-06-14T04:39:21;9.30;;;7.15;;
46391;SDS011;32098;49.448;7.904;2023-06-14T04:41:48;9.00;;;7.30;;
46391;SDS011;32098;49.448;7.904;2023-06-14T04:44:19;7.90;;;7.10;;
46391;SDS011;32098;49.448;7.904;2023-06-14T04:46:52;11.05;;;7.50;;
46391;SDS011;32098;49.448;7.904;2023-06-14T04:49:21;10.55;;;6.90;;
46391;SDS011;32098;49.448;7.904;2023-06-14T04:51:53;9.80;;;7.60;;
46391;SDS011;32098;49.448;7.904;2023-06-14T04:54:25;7.82;;;7.00;;
46391;SDS011;32098;49.448;7.904;2023-06-14T04:56:52;7.30;;;6.60;;
46391;SDS011;32098;49.448;7.904;2023-06-14T04:59:25;8.93;;;7.28;;
46391;SDS011;32098;49.448;7.904;2023-06-14T05:01:52;8.45;;;7.22;;
46391;SDS011;32098;49.448;7.904;2023-06-14T05:04:21;8.55;;;7.55;;
46391;SDS011;32098;49.448;7.904;2023-06-14T05:06:48;7.68;;;6.97;;
46391;SDS011;32098;49.448;7.904;2023-06-14T05:09:15;12.27;;;7.05;;
46391;SDS011;32098;49.448;7.904;2023-06-14T05:11:43;7.65;;;6.97;;
46391;SDS011;32098;49.448;7.904;2023-06-14T05:14:11;7.82;;;6.90;;
46391;SDS011;32098;49.448;7.904;2023-06-14T05:16:38;7.15;;;6.45;;
46391;SDS011;32098;49.448;7.904;2023-06-14T05:19:05;8.15;;;7.15;;
46391;SDS011;32098;49.448;7.904;2023-06-14T05:21:34;12.20;;;7.80;;
46391;SDS011;32098;49.448;7.904;2023-06-14T05:24:07;8.85;;;6.57;;
46391;SDS011;32098;49.448;7.904;2023-06-14T05:26:35;9.23;;;8.00;;
46391;SDS011;32098;49.448;7.904;2023-06-14T05:29:02;9.68;;;6.70;;
46391;SDS011;32098;49.448;7.904;2023-06-14T05:31:29;7.50;;;6.80;;
46391;SDS011;32098;49.448;7.904;2023-06-14T05:33:55;7.75;;;6.90;;
46391;SDS011;32098;49.448;7.904;2023-06-14T05:36:22;7.47;;;6.65;;
46391;SDS011;32098;49.448;7.904;2023-06-14T05:38:49;7.65;;;6.88;;
46391;SDS011;32098;49.448;7.904;2023-06-14T05:41:17;7.55;;;6.15;;
46391;SDS011;32098;49.448;7.904;2023-06-14T05:43:43;7.57;;;6.43;;
46391;SDS011;32098;49.448;7.904;2023-06-14T05:46:10;9.00;;;6.10;;
46391;SDS011;32098;49.448;7.904;2023-06-14T05:48:36;9.18;;;5.97;;
46391;SDS011;32098;49.448;7.904;2023-06-14T05:51:03;8.43;;;6.10;;
46391;SDS011;32098;49.448;7.904;2023-06-14T05:53:30;9.35;;;6.13;;
46391;SDS011;32098;49.448;7.904;2023-06-14T05:55:56;8.77;;;5.97;;
46391;SDS011;32098;49.448;7.904;2023-06-14T05:58:23;6.57;;;4.80;;
46391;SDS011;32098;49.448;7.904;2023-06-14T06:00:49;12.88;;;5.00;;
46391;SDS011;32098;49.448;7.904;2023-06-14T06:03:17;7.93;;;4.85;;
46391;SDS011;32098;49.448;7.904;2023-06-14T06:05:43;6.75;;;4.53;;
46391;SDS011;32098;49.448;7.904;2023-06-14T06:08:10;7.93;;;4.70;;
46391;SDS011;32098;49.448;7.904;2023-06-14T06:10:36;7.45;;;4.57;;
46391;SDS011;32098;49.448;7.904;2023-06-14T06:13:03;8.00;;;4.60;;
46391;SDS011;32098;49.448;7.904;2023-06-14T06:15:30;7.85;;;4.78;;
46391;SDS011;32098;49.448;7.904;2023-06-14T06:17:56;7.25;;;4.95;;
46391;SDS011;32098;49.448;7.904;2023-06-14T06:20:23;6.22;;;4.82;;
46391;SDS011;32098;49.448;7.904;2023-06-14T06:22:56;6.30;;;4.90;;
46391;SDS011;32098;49.448;7.904;2023-06-14T06:25:27;7.13;;;4.68;;
46391;SDS011;32098;49.448;7.904;2023-06-14T06:27:54;5.85;;;4.70;;
46391;SDS011;32098;49.448;7.904;2023-06-14T06:30:24;9.30;;;4.63;;
46391;SDS011;32098;49.448;7.904;2023-06-14T06:32:51;5.22;;;4.72;;
46391;SDS011;32098;49.448;7.904;2023-06-14T06:35:19;6.47;;;5.00;;
46391;SDS011;32098;49.448;7.904;2023-06-14T06:37:46;5.03;;;4.25;;
46391;SDS011;32098;49.448;7.904;2023-06-14T06:40:12;6.40;;;4.70;;
46391;SDS011;32098;49.448;7.904;2023-06-14T06:42:39;8.45;;;4.57;;
46391;SDS011;32098;49.448;7.904;2023-06-14T06:45:09;7.30;;;4.68;;
46391;SDS011;32098;49.448;7.904;2023-06-14T06:47:36;6.22;;;4.63;;
46391;SDS011;32098;49.448;7.904;2023-06-14T06:50:03;6.15;;;4.53;;
46391;SDS011;32098;49.448;7.904;2023-06-14T06:52:29;6.10;;;5.22;;
46391;SDS011;32098;49.448;7.904;2023-06-14T06:54:56;8.30;;;4.68;;
46391;SDS011;32098;49.448;7.904;2023-06-14T06:57:23;7.05;;;4.57;;
46391;SDS011;32098;49.448;7.904;2023-06-14T06:59:49;5.97;;;4.90;;
46391;SDS011;32098;49.448;7.904;2023-06-14T07:02:16;6.70;;;4.60;;
46391;SDS011;32098;49.448;7.904;2023-06-14T07:04:43;6.70;;;4.85;;
46391;SDS011;32098;49.448;7.904;2023-06-14T07:07:10;5.63;;;4.68;;
46391;SDS011;32098;49.448;7.904;2023-06-14T07:09:36;6.63;;;4.90;;
46391;SDS011;32098;49.448;7.904;2023-06-14T07:12:03;6.65;;;4.82;;
46391;SDS011;32098;49.448;7.904;2023-06-14T07:14:30;8.02;;;4.70;;
46391;SDS011;32098;49.448;7.904;2023-06-14T07:16:56;8.73;;;4.57;;
46391;SDS011;32098;49.448;7.904;2023-06-14T07:19:23;7.68;;;4.57;;
46391;SDS011;32098;49.448;7.904;2023-06-14T07:21:49;6.15;;;4.80;;
46391;SDS011;32098;49.448;7.904;2023-06-14T07:24:18;6.03;;;4.30;;
46391;SDS011;32098;49.448;7.904;2023-06-14T07:26:47;5.95;;;4.35;;
46391;SDS011;32098;49.448;7.904;2023-06-14T07:29:14;6.00;;;4.82;;
46391;SDS011;32098;49.448;7.904;2023-06-14T07:31:42;4.68;;;4.28;;
46391;SDS011;32098;49.448;7.904;2023-06-14T07:34:09;8.40;;;4.50;;
46391;SDS011;32098;49.448;7.904;2023-06-14T07:36:35;7.03;;;4.50;;
46391;SDS011;32098;49.448;7.904;2023-06-14T07:39:03;5.68;;;4.63;;
46391;SDS011;32098;49.448;7.904;2023-06-14T07:41:29;6.78;;;4.40;;
46391;SDS011;32098;49.448;7.904;2023-06-14T07:43:56;7.95;;;4.43;;
46391;SDS011;32098;49.448;7.904;2023-06-14T07:46:22;6.05;;;4.45;;
46391;SDS011;32098;49.448;7.904;2023-06-14T07:48:49;6.18;;;4.80;;
46391;SDS011;32098;49.448;7.904;2023-06-14T07:51:16;8.57;;;4.97;;
46391;SDS011;32098;49.448;7.904;2023-06-14T07:53:42;5.38;;;4.53;;
46391;SDS011;32098;49.448;7.904;2023-06-14T07:56:09;9.75;;;4.18;;
46391;SDS011;32098;49.448;7.904;2023-06-14T07:58:36;5.47;;;4.25;;
46391;SDS011;32098;49.448;7.904;2023-06-14T08:01:03;6.85;;;4.53;;
46391;SDS011;32098;49.448;7.904;2023-06-14T08:03:32;6.70;;;4.32;;
46391;SDS011;32098;49.448;7.904;2023-06-14T08:05:59;7.45;;;4.50;;
46391;SDS011;32098;49.448;7.904;2023-06-14T08:08:27;6.18;;;4.63;;
46391;SDS011;32098;49.448;7.904;2023-06-14T08:10:53;5.90;;;4.47;;
46391;SDS011;32098;49.448;7.904;2023-06-14T08:13:20;5.32;;;4.10;;
46391;SDS011;32098;49.448;7.904;2023-06-14T08:15:46;6.15;;;4.28;;
46391;SDS011;32098;49.448;7.904;2023-06-14T08:18:13;6.57;;;4.63;;
46391;SDS011;32098;49.448;7.904;2023-06-14T08:20:39;4.97;;;4.45;;
46391;SDS011;32098;49.448;7.904;2023-06-14T08:23:06;6.72;;;4.40;;
46391;SDS011;32098;49.448;7.904;2023-06-14T08:25:34;6.13;;;4.88;;
46391;SDS011;32098;49.448;7.904;2023-06-14T08:28:01;4.95;;;4.47;;
46391;SDS011;32098;49.448;7.904;2023-06-14T08:30:27;9.25;;;4.57;;
46391;SDS011;32098;49.448;7.904;2023-06-14T08:32:54;7.22;;;4.20;;
46391;SDS011;32098;49.448;7.904;2023-06-14T08:35:40;8.13;;;4.75;;
46391;SDS011;32098;49.448;7.904;2023-06-14T08:38:07;6.85;;;3.83;;
46391;SDS011;32098;49.448;7.904;2023-06-14T08:40:33;6.55;;;4.15;;
46391;SDS011;32098;49.448;7.904;2023-06-14T08:43:04;5.38;;;4.13;;
46391;SDS011;32098;49.448;7.904;2023-06-14T08:45:30;6.28;;;3.90;;
46391;SDS011;32098;49.448;7.904;2023-06-14T08:47:58;7.55;;;3.75;;
46391;SDS011;32098;49.448;7.904;2023-06-14T08:50:27;7.82;;;4.05;;
46391;SDS011;32098;49.448;7.904;2023-06-14T08:52:59;5.32;;;3.83;;
46391;SDS011;32098;49.448;7.904;2023-06-14T08:55:29;6.95;;;3.80;;
46391;SDS011;32098;49.448;7.904;2023-06-14T08:58:01;7.63;;;4.20;;
46391;SDS011;32098;49.448;7.904;2023-06-14T09:00:30;5.55;;;3.67;;
46391;SDS011;32098;49.448;7.904;2023-06-14T09:02:57;4.60;;;3.70;;
46391;SDS011;32098;49.448;7.904;2023-06-14T09:05:24;4.93;;;3.65;;
46391;SDS011;32098;49.448;7.904;2023-06-14T09:07:52;7.20;;;4.22;;
46391;SDS011;32098;49.448;7.904;2023-06-14T09:10:23;4.95;;;3.60;;
46391;SDS011;32098;49.448;7.904;2023-06-14T09:12:50;6.28;;;3.38;;
46391;SDS011;32098;49.448;7.904;2023-06-14T09:15:17;5.43;;;3.88;;
46391;SDS011;32098;49.448;7.904;2023-06-14T09:17:44;3.85;;;3.30;;
46391;SDS011;32098;49.448;7.904;2023-06-14T09:20:11;4.45;;;3.33;;
46391;SDS011;32098;49.448;7.904;2023-06-14T09:22:44;4.20;;;3.20;;
46391;SDS011;32098;49.448;7.904;2023-06-14T09:25:11;4.72;;;3.20;;
46391;SDS011;32098;49.448;7.904;2023-06-14T09:27:54;6.40;;;3.38;;
46391;SDS011;32098;49.448;7.904;2023-06-14T09:30:21;5.38;;;3.60;;
46391;SDS011;32098;49.448;7.904;2023-06-14T09:32:48;6.80;;;3.85;;
46391;SDS011;32098;49.448;7.904;2023-06-14T09:35:15;5.22;;;3.35;;
46391;SDS011;32098;49.448;7.904;2023-06-14T09:37:44;3.80;;;3.08;;
46391;SDS011;32098;49.448;7.904;2023-06-14T09:40:10;3.50;;;2.88;;
46391;SDS011;32098;49.448;7.904;2023-06-14T09:42:37;7.72;;;3.10;;
46391;SDS011;32098;49.448;7.904;2023-06-14T09:45:04;4.85;;;2.70;;
46391;SDS011;32098;49.448;7.904;2023-06-14T09:47:31;2.65;;;2.45;;
46391;SDS011;32098;49.448;7.904;2023-06-14T09:49:58;7.78;;;3.03;;
46391;SDS011;32098;49.448;7.904;2023-06-14T09:52:26;3.97;;;2.92;;
46391;SDS011;32098;49.448;7.904;2023-06-14T09:54:54;4.70;;;3.00;;
46391;SDS011;32098;49.448;7.904;2023-06-14T09:57:22;3.50;;;3.20;;
46391;SDS011;32098;49.448;7.904;2023-06-14T09:59:56;4.97;;;3.15;;
46391;SDS011;32098;49.448;7.904;2023-06-14T10:05:05;4.95;;;2.92;;
46391;SDS011;32098;49.448;7.904;2023-06-14T10:07:36;4.80;;;3.05;;
46391;SDS011;32098;49.448;7.904;2023-06-14T10:10:10;4.88;;;3.25;;
46391;SDS011;32098;49.448;7.904;2023-06-14T10:12:38;4.75;;;3.40;;
46391;SDS011;32098;49.448;7.904;2023-06-14T10:15:05;7.28;;;2.80;;
46391;SDS011;32098;49.448;7.904;2023-06-14T10:17:39;4.85;;;3.15;;
46391;SDS011;32098;49.448;7.904;2023-06-14T10:20:16;5.45;;;3.08;;
46391;SDS011;32098;49.448;7.904;2023-06-14T10:22:58;5.45;;;2.78;;
46391;SDS011;32098;49.448;7.904;2023-06-14T10:25:30;4.45;;;2.88;;
46391;SDS011;32098;49.448;7.904;2023-06-14T10:28:17;3.33;;;2.67;;
46391;SDS011;32098;49.448;7.904;2023-06-14T10:37:02;3.70;;;2.85;;
46391;SDS011;32098;49.448;7.904;2023-06-14T10:39:31;4.53;;;2.53;;
46391;SDS011;32098;49.448;7.904;2023-06-14T10:42:01;5.03;;;2.80;;
46391;SDS011;32098;49.448;7.904;2023-06-14T10:46:58;3.35;;;2.70;;
46391;SDS011;32098;49.448;7.904;2023-06-14T10:49:43;4.22;;;2.88;;
46391;SDS011;32098;49.448;7.904;2023-06-14T10:52:12;5.32;;;2.70;;
46391;SDS011;32098;49.448;7.904;2023-06-14T10:57:35;4.68;;;2.70;;
46391;SDS011;32098;49.448;7.904;2023-06-14T11:00:06;8.23;;;2.70;;
46391;SDS011;32098;49.448;7.904;2023-06-14T11:02:51;3.42;;;3.13;;
46391;SDS011;32098;49.448;7.904;2023-06-14T11:05:53;5.10;;;2.42;;
46391;SDS011;32098;49.448;7.904;2023-06-14T11:08:45;2.47;;;2.28;;
46391;SDS011;32098;49.448;7.904;2023-06-14T11:11:38;3.45;;;2.33;;
46391;SDS011;32098;49.448;7.904;2023-06-14T11:14:08;3.42;;;2.83;;
46391;SDS011;32098;49.448;7.904;2023-06-14T11:16:34;5.47;;;2.60;;
46391;SDS011;32098;49.448;7.904;2023-06-14T11:19:01;2.80;;;2.60;;
46391;SDS011;32098;49.448;7.904;2023-06-14T11:21:29;5.45;;;2.45;;
46391;SDS011;32098;49.448;7.904;2023-06-14T11:23:57;3.03;;;2.28;;
46391;SDS011;32098;49.448;7.904;2023-06-14T11:26:25;4.22;;;2.38;;
46391;SDS011;32098;49.448;7.904;2023-06-14T11:28:57;3.88;;;2.40;;
46391;SDS011;32098;49.448;7.904;2023-06-14T11:31:26;4.03;;;2.45;;
46391;SDS011;32098;49.448;7.904;2023-06-14T11:33:54;2.83;;;2.30;;
46391;SDS011;32098;49.448;7.904;2023-06-14T11:36:23;4.25;;;2.50;;
46391;SDS011;32098;49.448;7.904;2023-06-14T11:39:03;4.95;;;2.47;;
46391;SDS011;32098;49.448;7.904;2023-06-14T11:41:42;5.93;;;2.40;;
46391;SDS011;32098;49.448;7.904;2023-06-14T11:44:10;2.33;;;2.13;;
46391;SDS011;32098;49.448;7.904;2023-06-14T11:46:38;3.20;;;2.50;;
46391;SDS011;32098;49.448;7.904;2023-06-14T11:49:06;2.67;;;2.22;;
46391;SDS011;32098;49.448;7.904;2023-06-14T11:51:34;2.45;;;2.25;;
46391;SDS011;32098;49.448;7.904;2023-06-14T11:54:02;3.72;;;2.55;;
46391;SDS011;32098;49.448;7.904;2023-06-14T11:56:30;2.47;;;2.28;;
46391;SDS011;32098;49.448;7.904;2023-06-14T11:58:58;2.20;;;2.00;;
46391;SDS011;32098;49.448;7.904;2023-06-14T12:01:25;3.13;;;2.47;;
46391;SDS011;32098;49.448;7.904;2023-06-14T12:03:53;4.43;;;2.22;;
46391;SDS011;32098;49.448;7.904;2023-06-14T12:06:30;2.53;;;2.33;;
46391;SDS011;32098;49.448;7.904;2023-06-14T12:09:04;3.13;;;2.20;;
46391;SDS011;32098;49.448;7.904;2023-06-14T12:11:39;3.97;;;2.20;;
46391;SDS011;32098;49.448;7.904;2023-06-14T12:14:05;2.92;;;2.30;;
46391;SDS011;32098;49.448;7.904;2023-06-14T12:16:34;2.90;;;2.42;;
46391;SDS011;32098;49.448;7.904;2023-06-14T12:19:13;4.05;;;2.50;;
46391;SDS011;32098;49.448;7.904;2023-06-14T12:21:41;3.50;;;2.22;;
46391;SDS011;32098;49.448;7.904;2023-06-14T12:24:09;5.38;;;2.40;;
46391;SDS011;32098;49.448;7.904;2023-06-14T12:26:38;3.63;;;2.13;;
46391;SDS011;32098;49.448;7.904;2023-06-14T12:29:08;2.78;;;2.03;;
46391;SDS011;32098;49.448;7.904;2023-06-14T12:31:36;2.10;;;1.90;;
46391;SDS011;32098;49.448;7.904;2023-06-14T12:34:03;3.97;;;2.20;;
46391;SDS011;32098;49.448;7.904;2023-06-14T12:36:30;3.75;;;2.30;;
46391;SDS011;32098;49.448;7.904;2023-06-14T12:38:57;4.35;;;2.15;;
46391;SDS011;32098;49.448;7.904;2023-06-14T12:41:24;3.45;;;2.08;;
46391;SDS011;32098;49.448;7.904;2023-06-14T12:43:51;2.50;;;2.20;;
46391;SDS011;32098;49.448;7.904;2023-06-14T12:46:17;2.10;;;1.90;;
46391;SDS011;32098;49.448;7.904;2023-06-14T12:48:44;6.70;;;2.10;;
46391;SDS011;32098;49.448;7.904;2023-06-14T12:51:11;2.47;;;2.28;;
46391;SDS011;32098;49.448;7.904;2023-06-14T12:53:37;2.95;;;2.00;;
46391;SDS011;32098;49.448;7.904;2023-06-14T12:56:04;3.35;;;1.98;;
46391;SDS011;32098;49.448;7.904;2023-06-14T12:58:30;2.20;;;1.90;;
46391;SDS011;32098;49.448;7.904;2023-06-14T13:00:57;2.95;;;2.05;;
46391;SDS011;32098;49.448;7.904;2023-06-14T13:03:23;3.97;;;2.58;;
46391;SDS011;32098;49.448;7.904;2023-06-14T13:05:50;5.68;;;2.25;;
46391;SDS011;32098;49.448;7.904;2023-06-14T13:08:17;4.22;;;2.00;;
46391;SDS011;32098;49.448;7.904;2023-06-14T13:10:43;3.00;;;2.03;;
46391;SDS011;32098;49.448;7.904;2023-06-14T13:13:10;3.88;;;1.98;;
46391;SDS011;32098;49.448;7.904;2023-06-14T13:15:38;2.15;;;1.95;;
46391;SDS011;32098;49.448;7.904;2023-06-14T13:18:06;3.45;;;2.03;;
46391;SDS011;32098;49.448;7.904;2023-06-14T13:20:32;3.13;;;2.30;;
46391;SDS011;32098;49.448;7.904;2023-06-14T13:22:59;2.42;;;2.22;;
46391;SDS011;32098;49.448;7.904;2023-06-14T13:25:26;4.03;;;1.92;;
46391;SDS011;32098;49.448;7.904;2023-06-14T13:27:52;2.13;;;1.85;;
46391;SDS011;32098;49.448;7.904;2023-06-14T13:30:19;2.90;;;2.00;;
46391;SDS011;32098;49.448;7.904;2023-06-14T13:32:46;4.35;;;2.10;;
46391;SDS011;32098;49.448;7.904;2023-06-14T13:35:16;2.60;;;2.03;;
46391;SDS011;32098;49.448;7.904;2023-06-14T13:37:43;3.35;;;2.38;;
46391;SDS011;32098;49.448;7.904;2023-06-14T13:40:09;2.20;;;2.00;;
46391;SDS011;32098;49.448;7.904;2023-06-14T13:42:36;2.50;;;2.30;;
46391;SDS011;32098;49.448;7.904;2023-06-14T13:45:03;5.18;;;2.40;;
46391;SDS011;32098;49.448;7.904;2023-06-14T13:47:31;2.20;;;2.00;;
46391;SDS011;32098;49.448;7.904;2023-06-14T13:49:58;2.88;;;2.28;;
46391;SDS011;32098;49.448;7.904;2023-06-14T13:52:24;2.40;;;2.20;;
46391;SDS011;32098;49.448;7.904;2023-06-14T13:54:51;4.63;;;2.40;;
46391;SDS011;32098;49.448;7.904;2023-06-14T13:57:18;3.58;;;2.05;;
46391;SDS011;32098;49.448;7.904;2023-06-14T13:59:44;3.40;;;2.15;;
46391;SDS011;32098;49.448;7.904;2023-06-14T14:02:11;4.20;;;2.65;;
46391;SDS011;32098;49.448;7.904;2023-06-14T14:04:39;3.10;;;2.90;;
46391;SDS011;32098;49.448;7.904;2023-06-14T14:07:07;4.47;;;3.28;;
46391;SDS011;32098;49.448;7.904;2023-06-14T14:09:34;3.55;;;2.63;;
46391;SDS011;32098;49.448;7.904;2023-06-14T14:12:01;2.40;;;2.20;;
46391;SDS011;32098;49.448;7.904;2023-06-14T14:14:29;2.92;;;2.35;;
46391;SDS011;32098;49.448;7.904;2023-06-14T14:16:58;4.90;;;2.38;;
46391;SDS011;32098;49.448;7.904;2023-06-14T14:19:24;2.65;;;2.45;;
46391;SDS011;32098;49.448;7.904;2023-06-14T14:21:51;2.67;;;2.40;;
46391;SDS011;32098;49.448;7.904;2023-06-14T14:24:19;2.13;;;1.92;;
46391;SDS011;32098;49.448;7.904;2023-06-14T14:26:46;3.15;;;2.17;;
46391;SDS011;32098;49.448;7.904;2023-06-14T14:29:15;3.45;;;2.30;;
46391;SDS011;32098;49.448;7.904;2023-06-14T14:31:42;2.80;;;2.15;;
46391;SDS011;32098;49.448;7.904;2023-06-14T14:34:08;3.45;;;2.60;;
46391;SDS011;32098;49.448;7.904;2023-06-14T14:36:35;2.42;;;2.22;;
46391;SDS011;32098;49.448;7.904;2023-06-14T14:39:04;4.32;;;2.00;;
46391;SDS011;32098;49.448;7.904;2023-06-14T14:41:30;2.72;;;2.35;;
46391;SDS011;32098;49.448;7.904;2023-06-14T14:43:57;2.63;;;2.42;;
46391;SDS011;32098;49.448;7.904;2023-06-14T14:46:24;4.00;;;2.60;;
46391;SDS011;32098;49.448;7.904;2023-06-14T14:48:51;3.25;;;2.53;;
46391;SDS011;32098;49.448;7.904;2023-06-14T14:51:17;3.50;;;2.55;;
46391;SDS011;32098;49.448;7.904;2023-06-14T14:53:44;4.00;;;2.55;;
46391;SDS011;32098;49.448;7.904;2023-06-14T14:56:11;3.20;;;2.85;;
46391;SDS011;32098;49.448;7.904;2023-06-14T14:58:38;4.82;;;2.70;;
46391;SDS011;32098;49.448;7.904;2023-06-14T15:01:05;6.35;;;2.83;;
46391;SDS011;32098;49.448;7.904;2023-06-14T15:03:32;4.63;;;2.50;;
46391;SDS011;32098;49.448;7.904;2023-06-14T15:06:19;3.17;;;2.65;;
46391;SDS011;32098;49.448;7.904;2023-06-14T15:08:45;4.90;;;2.70;;
46391;SDS011;32098;49.448;7.904;2023-06-14T15:11:12;4.07;;;2.70;;
46391;SDS011;32098;49.448;7.904;2023-06-14T15:13:38;5.15;;;2.78;;